createdAt,value
2022-08-07T04:12:51.855Z,13.4
2022-08-07T04:15:07.219Z,13.47
2022-08-07T04:17:22.695Z,13.62
2022-08-07T04:19:51.381Z,13.83
2022-08-07T04:21:58.986Z,14.08
2022-08-07T04:24:30.417Z,14.32
2022-08-07T04:26:32.234Z,14.53
2022-08-07T04:28:47.612Z,14.71
2022-08-07T04:31:03.301Z,14.9
2022-08-07T04:33:19.684Z,15.07
2022-08-07T04:35:35.650Z,15.24
2022-08-07T04:38:01.290Z,15.38
2022-08-07T04:40:06.752Z,15.51
2022-08-07T04:42:23.101Z,15.6
2022-08-07T04:44:54.297Z,15.64
2022-08-07T04:46:59.848Z,15.64
2022-08-07T04:49:18.204Z,15.63
2022-08-07T04:51:32.055Z,15.63
2022-08-07T04:54:02.090Z,15.64
2022-08-07T04:58:09.131Z,15.66
2022-08-07T04:58:29.506Z,15.7
2022-08-07T05:00:39.003Z,15.77
2022-08-07T05:02:53.487Z,15.83
2022-08-07T05:05:11.375Z,15.87
2022-08-07T05:07:30.732Z,15.89
2022-08-07T05:09:43.282Z,15.93
2022-08-07T05:12:02.482Z,15.98
2022-08-07T05:14:45.041Z,16.030001
2022-08-07T05:16:31.626Z,16.09
2022-08-07T05:18:48.977Z,16.15
2022-08-07T05:21:04.563Z,16.190001
2022-08-07T05:23:18.849Z,16.24
2022-08-07T05:26:01.934Z,16.290001
2022-08-07T05:28:02.315Z,16.35
2022-08-07T05:30:10.898Z,16.389999
2022-08-07T05:32:28.255Z,16.41
2022-08-07T05:34:43.668Z,16.43
2022-08-07T05:36:59.045Z,16.450001
2022-08-07T05:40:06.155Z,16.49
2022-08-07T05:42:01.005Z,16.540001
2022-08-07T05:43:50.336Z,16.6
2022-08-07T05:46:06.935Z,16.67
2022-08-07T05:48:26.467Z,16.76
2022-08-07T05:50:39.468Z,16.860001
2022-08-07T05:52:53.145Z,16.969999
2022-08-07T05:55:10.230Z,17.08
2022-08-07T05:57:23.853Z,17.17
2022-08-07T05:59:56.344Z,17.25
2022-08-07T06:01:59.353Z,17.32
2022-08-07T06:04:13.988Z,17.4
2022-08-07T06:06:32.209Z,17.469999
2022-08-07T06:08:46.637Z,17.559999
2022-08-07T06:11:03.705Z,17.66
2022-08-07T06:13:18.423Z,17.77
2022-08-07T06:15:38.620Z,17.879999
2022-08-07T06:17:53.414Z,17.99
2022-08-07T06:20:06.497Z,18.1
2022-08-07T06:22:27.075Z,18.200001
2022-08-07T06:24:52.592Z,18.309999
2022-08-07T06:26:56.652Z,18.42
2022-08-07T06:29:13.022Z,18.549999
2022-08-07T06:31:38.681Z,18.719999
2022-08-07T06:33:46.827Z,18.91
2022-08-07T06:36:07.008Z,19.110001
2022-08-07T06:38:20.331Z,19.290001
2022-08-07T06:40:37.001Z,19.459999
2022-08-07T06:42:53.383Z,19.610001
2022-08-07T06:45:07.730Z,19.74
2022-08-07T06:47:25.031Z,19.870001
2022-08-07T06:49:51.295Z,19.98
2022-08-07T06:52:02.973Z,20.09
2022-08-07T06:55:30.371Z,20.200001
2022-08-07T06:56:35.105Z,20.299999
2022-08-07T07:00:11.254Z,20.360001
2022-08-07T07:01:09.934Z,20.4
2022-08-07T07:03:26.338Z,20.42
2022-08-07T07:06:02.206Z,20.440001
2022-08-07T07:08:04.107Z,20.459999
2022-08-07T07:10:16.365Z,20.5
2022-08-07T07:12:33.841Z,20.5
2022-08-07T07:14:51.610Z,20.51
2022-08-07T07:17:05.769Z,20.530001
2022-08-07T07:19:54.908Z,20.57
2022-08-07T07:22:04.352Z,20.59
2022-08-07T07:24:06.745Z,20.620001
2022-08-07T07:26:31.837Z,20.639999
2022-08-07T07:28:42.877Z,20.68
2022-08-07T07:30:49.935Z,20.709999
2022-08-07T07:33:05.339Z,20.74
2022-08-07T07:35:22.033Z,20.790001
2022-08-07T07:37:45.609Z,20.84
2022-08-07T07:39:56.764Z,20.9
2022-08-07T07:42:13.808Z,20.959999
2022-08-07T07:44:28.582Z,21.02
2022-08-07T07:46:54.051Z,21.07
2022-08-07T07:49:09.074Z,21.129999
2022-08-07T07:51:18.628Z,21.190001
2022-08-07T07:53:34.873Z,21.25
2022-08-07T07:55:55.033Z,21.290001
2022-08-07T07:58:09.341Z,21.33
2022-08-07T08:00:29.355Z,21.360001
2022-08-07T08:03:00.992Z,21.4
2022-08-07T08:04:59.372Z,21.440001
2022-08-07T08:07:14.778Z,21.48
2022-08-07T08:09:32.190Z,21.51
2022-08-07T08:11:59.563Z,21.540001
2022-08-07T08:14:06.877Z,21.559999
2022-08-07T08:16:25.109Z,21.6
2022-08-07T08:18:38.825Z,21.639999
2022-08-07T08:20:56.272Z,21.690001
2022-08-07T08:23:10.593Z,21.75
2022-08-07T08:25:42.134Z,21.809999
2022-08-07T08:27:44.098Z,21.879999
2022-08-07T08:30:02.843Z,21.950001
2022-08-07T08:32:17.636Z,22
2022-08-07T08:34:32.384Z,22.040001
2022-08-07T08:36:46.786Z,22.08
2022-08-07T08:39:04.175Z,22.120001
2022-08-07T08:41:18.559Z,22.18
2022-08-07T08:43:41.913Z,22.23
2022-08-07T08:45:58.820Z,22.280001
2022-08-07T08:48:08.668Z,22.33
2022-08-07T08:50:28.485Z,22.370001
2022-08-07T08:52:51.593Z,22.4
2022-08-07T08:54:59.073Z,22.440001
2022-08-07T08:57:16.291Z,22.48
2022-08-07T08:59:30.850Z,22.52
2022-08-07T09:01:49.382Z,22.559999
2022-08-07T09:04:05.719Z,22.610001
2022-08-07T09:06:21.998Z,22.65
2022-08-07T09:08:39.423Z,22.67
2022-08-07T09:10:56.686Z,22.709999
2022-08-07T09:13:11.026Z,22.75
2022-08-07T09:16:21.216Z,22.790001
2022-08-07T09:17:58.701Z,22.83
2022-08-07T09:20:01.065Z,22.870001
2022-08-07T09:22:36.922Z,22.92
2022-08-07T09:24:55.636Z,22.99
2022-08-07T09:26:53.179Z,23.08
2022-08-07T09:30:02.700Z,23.129999
2022-08-07T09:31:26.993Z,23.18
2022-08-07T09:33:53.323Z,23.24
2022-08-07T09:36:06.262Z,23.309999
2022-08-07T09:38:19.502Z,23.379999
2022-08-07T09:40:33.994Z,23.450001
2022-08-07T09:42:51.472Z,23.49
2022-08-07T09:47:26.748Z,23.549999
2022-08-07T09:47:29.166Z,23.629999
2022-08-07T09:50:00.157Z,23.690001
2022-08-07T09:52:09.523Z,23.73
2022-08-07T09:54:16.527Z,23.75
2022-08-07T09:56:34.160Z,23.790001
2022-08-07T09:58:51.038Z,23.85
2022-08-07T10:01:08.239Z,23.93
2022-08-07T10:04:04.589Z,24.01
2022-08-07T10:05:59.348Z,24.08
2022-08-07T10:07:58.145Z,24.16
2022-08-07T10:10:21.071Z,24.24
2022-08-07T10:12:30.825Z,24.299999
